sensor_id;sensor_type;location;lat;lon;timestamp;temperature;humidity
4002;DHT22;2015;48.670;9.060;2024-01-30T00:00:10;4.00;99.90
4002;DHT22;2015;48.670;9.060;2024-01-30T00:02:42;3.90;99.90
4002;DHT22;2015;48.670;9.060;2024-01-30T00:05:14;3.70;99.90
4002;DHT22;2015;48.670;9.060;2024-01-30T00:07:46;3.60;99.90
4002;DHT22;2015;48.670;9.060;2024-01-30T00:10:18;3.50;99.90
4002;DHT22;2015;48.670;9.060;2024-01-30T00:12:50;3.50;99.90
4002;DHT22;2015;48.670;9.060;2024-01-30T00:15:22;3.50;99.90
4002;DHT22;2015;48.670;9.060;2024-01-30T00:17:54;3.70;99.90
4002;DHT22;2015;48.670;9.060;2024-01-30T00:20:26;3.80;99.90
4002;DHT22;2015;48.670;9.060;2024-01-30T00:22:57;4.10;99.90
4002;DHT22;2015;48.670;9.060;2024-01-30T00:25:29;4.40;99.90
4002;DHT22;2015;48.670;9.060;2024-01-30T00:28:01;4.70;99.90
4002;DHT22;2015;48.670;9.060;2024-01-30T00:30:33;4.80;99.90
4002;DHT22;2015;48.670;9.060;2024-01-30T00:33:04;4.80;99.90
4002;DHT22;2015;48.670;9.060;2024-01-30T00:35:36;5.00;99.90
4002;DHT22;2015;48.670;9.060;2024-01-30T00:38:08;5.00;99.90
4002;DHT22;2015;48.670;9.060;2024-01-30T00:40:39;4.80;99.90
4002;DHT22;2015;48.670;9.060;2024-01-30T00:43:11;4.70;99.90
4002;DHT22;2015;48.670;9.060;2024-01-30T00:45:46;4.50;99.90
4002;DHT22;2015;48.670;9.060;2024-01-30T00:48:18;4.50;99.90
4002;DHT22;2015;48.670;9.060;2024-01-30T00:50:50;4.60;99.90
4002;DHT22;2015;48.670;9.060;2024-01-30T00:53:22;4.50;99.90
4002;DHT22;2015;48.670;9.060;2024-01-30T00:55:53;4.40;99.90
4002;DHT22;2015;48.670;9.060;2024-01-30T00:58:25;4.30;99.90
4002;DHT22;2015;48.670;9.060;2024-01-30T01:00:57;4.20;99.90
4002;DHT22;2015;48.670;9.060;2024-01-30T01:03:29;4.20;99.90
4002;DHT22;2015;48.670;9.060;2024-01-30T01:06:01;4.10;99.90
4002;DHT22;2015;48.670;9.060;2024-01-30T01:08:32;4.00;99.90
4002;DHT22;2015;48.670;9.060;2024-01-30T01:11:04;4.00;99.90
4002;DHT22;2015;48.670;9.060;2024-01-30T01:13:36;3.90;99.90
4002;DHT22;2015;48.670;9.060;2024-01-30T01:16:08;4.10;99.90
4002;DHT22;2015;48.670;9.060;2024-01-30T01:18:39;4.20;99.90
4002;DHT22;2015;48.670;9.060;2024-01-30T01:21:11;4.30;99.90
4002;DHT22;2015;48.670;9.060;2024-01-30T01:23:43;4.20;99.90
4002;DHT22;2015;48.670;9.060;2024-01-30T01:26:15;4.20;99.90
4002;DHT22;2015;48.670;9.060;2024-01-30T01:28:46;4.30;99.90
4002;DHT22;2015;48.670;9.060;2024-01-30T01:31:18;4.40;99.90
4002;DHT22;2015;48.670;9.060;2024-01-30T01:33:50;4.40;99.90
4002;DHT22;2015;48.670;9.060;2024-01-30T01:36:22;4.40;99.90
4002;DHT22;2015;48.670;9.060;2024-01-30T01:38:55;4.30;99.90
4002;DHT22;2015;48.670;9.060;2024-01-30T01:41:33;4.30;99.90
4002;DHT22;2015;48.670;9.060;2024-01-30T01:44:04;4.30;99.90
4002;DHT22;2015;48.670;9.060;2024-01-30T01:46:36;4.10;99.90
4002;DHT22;2015;48.670;9.060;2024-01-30T01:49:08;4.00;99.90
4002;DHT22;2015;48.670;9.060;2024-01-30T01:51:42;3.90;99.90
4002;DHT22;2015;48.670;9.060;2024-01-30T01:54:16;3.80;99.90
4002;DHT22;2015;48.670;9.060;2024-01-30T01:56:48;3.70;99.90
4002;DHT22;2015;48.670;9.060;2024-01-30T01:59:20;3.70;99.90
4002;DHT22;2015;48.670;9.060;2024-01-30T02:01:54;3.60;99.90
4002;DHT22;2015;48.670;9.060;2024-01-30T02:04:27;3.60;99.90
4002;DHT22;2015;48.670;9.060;2024-01-30T02:06:59;3.60;99.90
4002;DHT22;2015;48.670;9.060;2024-01-30T02:09:31;3.90;99.90
4002;DHT22;2015;48.670;9.060;2024-01-30T02:12:03;3.90;99.90
4002;DHT22;2015;48.670;9.060;2024-01-30T02:14:47;3.80;99.90
4002;DHT22;2015;48.670;9.060;2024-01-30T02:17:19;3.80;99.90
4002;DHT22;2015;48.670;9.060;2024-01-30T02:19:51;3.70;99.90
4002;DHT22;2015;48.670;9.060;2024-01-30T02:22:24;3.60;99.90
4002;DHT22;2015;48.670;9.060;2024-01-30T02:24:56;3.60;99.90
4002;DHT22;2015;48.670;9.060;2024-01-30T02:27:27;3.60;99.90
4002;DHT22;2015;48.670;9.060;2024-01-30T02:29:59;3.40;99.90
4002;DHT22;2015;48.670;9.060;2024-01-30T02:32:31;3.40;99.90
4002;DHT22;2015;48.670;9.060;2024-01-30T02:35:03;3.40;99.90
4002;DHT22;2015;48.670;9.060;2024-01-30T02:37:35;3.30;99.90
4002;DHT22;2015;48.670;9.060;2024-01-30T02:40:07;3.30;99.90
4002;DHT22;2015;48.670;9.060;2024-01-30T02:42:39;3.30;99.90
4002;DHT22;2015;48.670;9.060;2024-01-30T02:45:11;3.30;99.90
4002;DHT22;2015;48.670;9.060;2024-01-30T02:47:43;3.30;99.90
4002;DHT22;2015;48.670;9.060;2024-01-30T02:50:15;3.20;99.90
4002;DHT22;2015;48.670;9.060;2024-01-30T02:52:48;3.20;99.90
4002;DHT22;2015;48.670;9.060;2024-01-30T02:55:20;3.10;99.90
4002;DHT22;2015;48.670;9.060;2024-01-30T02:57:51;3.10;99.90
4002;DHT22;2015;48.670;9.060;2024-01-30T03:00:23;3.10;99.90
4002;DHT22;2015;48.670;9.060;2024-01-30T03:02:55;3.00;99.90
4002;DHT22;2015;48.670;9.060;2024-01-30T03:05:27;3.00;99.90
4002;DHT22;2015;48.670;9.060;2024-01-30T03:07:59;3.00;99.90
4002;DHT22;2015;48.670;9.060;2024-01-30T03:10:31;3.00;99.90
4002;DHT22;2015;48.670;9.060;2024-01-30T03:13:03;3.00;99.90
4002;DHT22;2015;48.670;9.060;2024-01-30T03:15:35;3.00;99.90
4002;DHT22;2015;48.670;9.060;2024-01-30T03:18:07;3.00;99.90
4002;DHT22;2015;48.670;9.060;2024-01-30T03:20:39;2.90;99.90
4002;DHT22;2015;48.670;9.060;2024-01-30T03:23:10;2.90;99.90
4002;DHT22;2015;48.670;9.060;2024-01-30T03:25:42;2.90;99.90
4002;DHT22;2015;48.670;9.060;2024-01-30T03:28:14;2.90;99.90
4002;DHT22;2015;48.670;9.060;2024-01-30T03:30:46;2.90;99.90
4002;DHT22;2015;48.670;9.060;2024-01-30T03:33:17;2.90;99.90
4002;DHT22;2015;48.670;9.060;2024-01-30T03:35:49;2.90;99.90
4002;DHT22;2015;48.670;9.060;2024-01-30T03:38:21;2.80;99.90
4002;DHT22;2015;48.670;9.060;2024-01-30T03:40:53;2.80;99.90
4002;DHT22;2015;48.670;9.060;2024-01-30T03:43:24;2.80;99.90
4002;DHT22;2015;48.670;9.060;2024-01-30T03:45:56;2.70;99.90
4002;DHT22;2015;48.670;9.060;2024-01-30T03:48:28;2.60;99.90
4002;DHT22;2015;48.670;9.060;2024-01-30T03:51:00;2.50;99.90
4002;DHT22;2015;48.670;9.060;2024-01-30T03:53:32;2.40;99.90
4002;DHT22;2015;48.670;9.060;2024-01-30T03:56:04;2.40;99.90
4002;DHT22;2015;48.670;9.060;2024-01-30T03:58:35;2.40;99.90
4002;DHT22;2015;48.670;9.060;2024-01-30T04:01:07;2.40;99.90
4002;DHT22;2015;48.670;9.060;2024-01-30T04:03:44;2.40;99.90
4002;DHT22;2015;48.670;9.060;2024-01-30T04:06:16;2.40;99.90
4002;DHT22;2015;48.670;9.060;2024-01-30T04:08:48;2.40;99.90
4002;DHT22;2015;48.670;9.060;2024-01-30T04:11:20;2.40;99.90
4002;DHT22;2015;48.670;9.060;2024-01-30T04:13:52;2.50;99.90
4002;DHT22;2015;48.670;9.060;2024-01-30T04:16:23;2.40;99.90
4002;DHT22;2015;48.670;9.060;2024-01-30T04:18:55;2.40;99.90
4002;DHT22;2015;48.670;9.060;2024-01-30T04:21:27;2.30;99.90
4002;DHT22;2015;48.670;9.060;2024-01-30T04:23:59;2.30;99.90
4002;DHT22;2015;48.670;9.060;2024-01-30T04:26:31;2.20;99.90
4002;DHT22;2015;48.670;9.060;2024-01-30T04:29:03;2.20;99.90
4002;DHT22;2015;48.670;9.060;2024-01-30T04:31:36;2.10;99.90
4002;DHT22;2015;48.670;9.060;2024-01-30T04:34:08;2.10;99.90
4002;DHT22;2015;48.670;9.060;2024-01-30T04:36:44;2.10;99.90
4002;DHT22;2015;48.670;9.060;2024-01-30T04:39:16;2.00;99.90
4002;DHT22;2015;48.670;9.060;2024-01-30T04:41:48;2.10;99.90
4002;DHT22;2015;48.670;9.060;2024-01-30T04:44:20;2.10;99.90
4002;DHT22;2015;48.670;9.060;2024-01-30T04:46:51;2.20;99.90
4002;DHT22;2015;48.670;9.060;2024-01-30T04:49:23;2.40;99.90
4002;DHT22;2015;48.670;9.060;2024-01-30T04:51:55;2.70;99.90
4002;DHT22;2015;48.670;9.060;2024-01-30T04:54:27;2.60;99.90
4002;DHT22;2015;48.670;9.060;2024-01-30T04:56:59;2.50;99.90
4002;DHT22;2015;48.670;9.060;2024-01-30T04:59:31;2.50;99.90
4002;DHT22;2015;48.670;9.060;2024-01-30T05:02:02;2.30;99.90
4002;DHT22;2015;48.670;9.060;2024-01-30T05:04:34;2.20;99.90
4002;DHT22;2015;48.670;9.060;2024-01-30T05:07:06;2.10;99.90
4002;DHT22;2015;48.670;9.060;2024-01-30T05:09:38;2.10;99.90
4002;DHT22;2015;48.670;9.060;2024-01-30T05:12:10;2.00;99.90
4002;DHT22;2015;48.670;9.060;2024-01-30T05:14:42;2.00;99.90
4002;DHT22;2015;48.670;9.060;2024-01-30T05:17:13;1.90;99.90
4002;DHT22;2015;48.670;9.060;2024-01-30T05:19:45;1.90;99.90
4002;DHT22;2015;48.670;9.060;2024-01-30T05:22:17;1.90;99.90
4002;DHT22;2015;48.670;9.060;2024-01-30T05:24:50;1.90;99.90
4002;DHT22;2015;48.670;9.060;2024-01-30T05:27:22;1.90;99.90
4002;DHT22;2015;48.670;9.060;2024-01-30T05:29:53;1.90;99.90
4002;DHT22;2015;48.670;9.060;2024-01-30T05:32:25;2.00;99.90
4002;DHT22;2015;48.670;9.060;2024-01-30T05:34:57;2.00;99.90
4002;DHT22;2015;48.670;9.060;2024-01-30T05:37:29;2.00;99.90
4002;DHT22;2015;48.670;9.060;2024-01-30T05:40:00;2.00;99.90
4002;DHT22;2015;48.670;9.060;2024-01-30T05:42:32;1.90;99.90
4002;DHT22;2015;48.670;9.060;2024-01-30T05:45:04;1.90;99.90
4002;DHT22;2015;48.670;9.060;2024-01-30T05:47:36;1.80;99.90
4002;DHT22;2015;48.670;9.060;2024-01-30T05:50:08;1.80;99.90
4002;DHT22;2015;48.670;9.060;2024-01-30T05:52:40;1.80;99.90
4002;DHT22;2015;48.670;9.060;2024-01-30T05:55:12;1.80;99.90
4002;DHT22;2015;48.670;9.060;2024-01-30T05:57:44;1.80;99.90
4002;DHT22;2015;48.670;9.060;2024-01-30T06:00:16;1.80;99.90
4002;DHT22;2015;48.670;9.060;2024-01-30T06:02:48;1.80;99.90
4002;DHT22;2015;48.670;9.060;2024-01-30T06:05:20;1.80;99.90
4002;DHT22;2015;48.670;9.060;2024-01-30T06:07:52;1.80;99.90
4002;DHT22;2015;48.670;9.060;2024-01-30T06:10:24;1.80;99.90
4002;DHT22;2015;48.670;9.060;2024-01-30T06:12:55;1.80;99.90
4002;DHT22;2015;48.670;9.060;2024-01-30T06:15:27;1.80;99.90
4002;DHT22;2015;48.670;9.060;2024-01-30T06:18:01;1.80;99.90
4002;DHT22;2015;48.670;9.060;2024-01-30T06:20:33;1.80;99.90
4002;DHT22;2015;48.670;9.060;2024-01-30T06:23:05;1.80;99.90
4002;DHT22;2015;48.670;9.060;2024-01-30T06:25:36;1.90;99.90
4002;DHT22;2015;48.670;9.060;2024-01-30T06:28:08;1.90;99.90
4002;DHT22;2015;48.670;9.060;2024-01-30T06:30:40;1.90;99.90
4002;DHT22;2015;48.670;9.060;2024-01-30T06:33:12;1.90;99.90
4002;DHT22;2015;48.670;9.060;2024-01-30T06:35:45;2.00;99.90
4002;DHT22;2015;48.670;9.060;2024-01-30T06:38:17;2.00;99.90
4002;DHT22;2015;48.670;9.060;2024-01-30T06:40:49;2.10;99.90
4002;DHT22;2015;48.670;9.060;2024-01-30T06:43:22;2.10;99.90
4002;DHT22;2015;48.670;9.060;2024-01-30T06:45:54;2.20;99.90
4002;DHT22;2015;48.670;9.060;2024-01-30T06:48:25;2.20;99.90
4002;DHT22;2015;48.670;9.060;2024-01-30T06:50:57;2.20;99.90
4002;DHT22;2015;48.670;9.060;2024-01-30T06:53:29;2.20;99.90
4002;DHT22;2015;48.670;9.060;2024-01-30T06:56:01;2.20;99.90
4002;DHT22;2015;48.670;9.060;2024-01-30T06:58:33;2.20;99.90
4002;DHT22;2015;48.670;9.060;2024-01-30T07:01:04;2.20;99.90
4002;DHT22;2015;48.670;9.060;2024-01-30T07:03:36;2.20;99.90
4002;DHT22;2015;48.670;9.060;2024-01-30T07:06:09;2.20;99.90
4002;DHT22;2015;48.670;9.060;2024-01-30T07:08:42;2.30;99.90
4002;DHT22;2015;48.670;9.060;2024-01-30T07:11:21;2.30;99.90
4002;DHT22;2015;48.670;9.060;2024-01-30T07:13:56;2.40;99.90
4002;DHT22;2015;48.670;9.060;2024-01-30T07:16:27;2.40;99.90
4002;DHT22;2015;48.670;9.060;2024-01-30T07:18:59;2.40;99.90
4002;DHT22;2015;48.670;9.060;2024-01-30T07:21:31;2.50;99.90
4002;DHT22;2015;48.670;9.060;2024-01-30T07:24:03;2.50;99.90
4002;DHT22;2015;48.670;9.060;2024-01-30T07:26:34;2.50;99.90
4002;DHT22;2015;48.670;9.060;2024-01-30T07:29:07;2.50;99.90
4002;DHT22;2015;48.670;9.060;2024-01-30T07:31:38;2.50;99.90
4002;DHT22;2015;48.670;9.060;2024-01-30T07:34:12;2.50;99.90
4002;DHT22;2015;48.670;9.060;2024-01-30T07:36:44;2.50;99.90
4002;DHT22;2015;48.670;9.060;2024-01-30T07:39:15;2.50;99.90
4002;DHT22;2015;48.670;9.060;2024-01-30T07:41:47;2.50;99.90
4002;DHT22;2015;48.670;9.060;2024-01-30T07:44:20;2.50;99.90
4002;DHT22;2015;48.670;9.060;2024-01-30T07:46:51;2.50;99.90
4002;DHT22;2015;48.670;9.060;2024-01-30T07:49:23;2.60;99.90
4002;DHT22;2015;48.670;9.060;2024-01-30T07:51:55;2.60;99.90
4002;DHT22;2015;48.670;9.060;2024-01-30T07:54:27;2.70;99.90
4002;DHT22;2015;48.670;9.060;2024-01-30T07:57:00;2.70;99.90
4002;DHT22;2015;48.670;9.060;2024-01-30T07:59:31;2.80;99.90
4002;DHT22;2015;48.670;9.060;2024-01-30T08:02:03;2.90;99.90
4002;DHT22;2015;48.670;9.060;2024-01-30T08:04:35;2.90;99.90
4002;DHT22;2015;48.670;9.060;2024-01-30T08:07:07;3.00;99.90
4002;DHT22;2015;48.670;9.060;2024-01-30T08:09:39;3.20;99.90
4002;DHT22;2015;48.670;9.060;2024-01-30T08:12:11;3.30;99.90
4002;DHT22;2015;48.670;9.060;2024-01-30T08:14:44;3.40;99.90
4002;DHT22;2015;48.670;9.060;2024-01-30T08:17:16;3.60;99.90
4002;DHT22;2015;48.670;9.060;2024-01-30T08:19:47;3.70;99.90
4002;DHT22;2015;48.670;9.060;2024-01-30T08:22:19;4.30;99.90
4002;DHT22;2015;48.670;9.060;2024-01-30T08:24:51;4.70;99.90
4002;DHT22;2015;48.670;9.060;2024-01-30T08:27:23;5.10;99.90
4002;DHT22;2015;48.670;9.060;2024-01-30T08:29:55;5.20;99.90
4002;DHT22;2015;48.670;9.060;2024-01-30T08:32:26;5.40;99.90
4002;DHT22;2015;48.670;9.060;2024-01-30T08:34:59;5.60;99.90
4002;DHT22;2015;48.670;9.060;2024-01-30T08:37:31;5.80;99.90
4002;DHT22;2015;48.670;9.060;2024-01-30T08:40:03;6.00;99.90
4002;DHT22;2015;48.670;9.060;2024-01-30T08:42:36;6.10;99.90
4002;DHT22;2015;48.670;9.060;2024-01-30T08:45:08;6.20;99.90
4002;DHT22;2015;48.670;9.060;2024-01-30T08:47:41;6.30;99.90
4002;DHT22;2015;48.670;9.060;2024-01-30T08:50:13;6.40;99.90
4002;DHT22;2015;48.670;9.060;2024-01-30T08:52:45;6.50;99.90
4002;DHT22;2015;48.670;9.060;2024-01-30T08:55:18;6.60;99.90
4002;DHT22;2015;48.670;9.060;2024-01-30T08:57:49;6.70;99.90
4002;DHT22;2015;48.670;9.060;2024-01-30T09:00:21;6.80;99.90
4002;DHT22;2015;48.670;9.060;2024-01-30T09:02:53;6.90;99.90
4002;DHT22;2015;48.670;9.060;2024-01-30T09:05:24;6.90;99.90
4002;DHT22;2015;48.670;9.060;2024-01-30T09:07:56;7.00;99.90
4002;DHT22;2015;48.670;9.060;2024-01-30T09:10:28;6.90;99.90
4002;DHT22;2015;48.670;9.060;2024-01-30T09:13:00;6.80;99.90
4002;DHT22;2015;48.670;9.060;2024-01-30T09:15:32;6.80;99.90
4002;DHT22;2015;48.670;9.060;2024-01-30T09:18:04;6.80;99.90
4002;DHT22;2015;48.670;9.060;2024-01-30T09:20:35;7.00;99.90
4002;DHT22;2015;48.670;9.060;2024-01-30T09:23:07;7.30;99.90
4002;DHT22;2015;48.670;9.060;2024-01-30T09:25:39;7.60;99.90
4002;DHT22;2015;48.670;9.060;2024-01-30T09:28:11;7.90;99.90
4002;DHT22;2015;48.670;9.060;2024-01-30T09:30:43;8.10;99.90
4002;DHT22;2015;48.670;9.060;2024-01-30T09:33:15;8.30;99.90
4002;DHT22;2015;48.670;9.060;2024-01-30T09:35:47;8.40;99.90
4002;DHT22;2015;48.670;9.060;2024-01-30T09:38:18;8.50;99.90
4002;DHT22;2015;48.670;9.060;2024-01-30T09:40:54;8.70;99.90
4002;DHT22;2015;48.670;9.060;2024-01-30T09:43:33;8.80;99.90
4002;DHT22;2015;48.670;9.060;2024-01-30T09:46:05;9.00;99.90
4002;DHT22;2015;48.670;9.060;2024-01-30T09:48:41;9.30;99.90
4002;DHT22;2015;48.670;9.060;2024-01-30T09:51:17;9.80;99.90
4002;DHT22;2015;48.670;9.060;2024-01-30T09:53:49;10.20;99.90
4002;DHT22;2015;48.670;9.060;2024-01-30T09:56:21;10.30;99.90
4002;DHT22;2015;48.670;9.060;2024-01-30T09:58:53;10.30;99.90
4002;DHT22;2015;48.670;9.060;2024-01-30T10:01:25;10.20;99.90
4002;DHT22;2015;48.670;9.060;2024-01-30T10:03:57;10.10;99.90
4002;DHT22;2015;48.670;9.060;2024-01-30T10:06:29;10.20;99.90
4002;DHT22;2015;48.670;9.060;2024-01-30T10:09:01;10.20;99.90
4002;DHT22;2015;48.670;9.060;2024-01-30T10:11:33;10.20;99.90
4002;DHT22;2015;48.670;9.060;2024-01-30T10:14:04;10.20;99.90
4002;DHT22;2015;48.670;9.060;2024-01-30T10:16:36;10.30;99.90
4002;DHT22;2015;48.670;9.060;2024-01-30T10:19:08;10.40;99.90
4002;DHT22;2015;48.670;9.060;2024-01-30T10:21:40;10.40;99.90
4002;DHT22;2015;48.670;9.060;2024-01-30T10:24:12;10.40;99.90
4002;DHT22;2015;48.670;9.060;2024-01-30T10:26:46;10.40;99.90
4002;DHT22;2015;48.670;9.060;2024-01-30T10:29:18;10.40;99.90
4002;DHT22;2015;48.670;9.060;2024-01-30T10:32:10;10.50;99.90
4002;DHT22;2015;48.670;9.060;2024-01-30T10:34:42;10.50;99.90
4002;DHT22;2015;48.670;9.060;2024-01-30T10:37:15;10.60;99.90
4002;DHT22;2015;48.670;9.060;2024-01-30T10:39:48;10.60;99.90
4002;DHT22;2015;48.670;9.060;2024-01-30T10:42:25;10.70;99.90
4002;DHT22;2015;48.670;9.060;2024-01-30T10:45:13;10.70;99.90
4002;DHT22;2015;48.670;9.060;2024-01-30T10:47:53;10.80;99.90
4002;DHT22;2015;48.670;9.060;2024-01-30T10:50:26;11.00;99.90
4002;DHT22;2015;48.670;9.060;2024-01-30T10:52:59;11.00;99.90
4002;DHT22;2015;48.670;9.060;2024-01-30T10:55:31;11.20;99.90
4002;DHT22;2015;48.670;9.060;2024-01-30T10:58:04;11.40;99.90
4002;DHT22;2015;48.670;9.060;2024-01-30T11:00:36;11.60;99.90
4002;DHT22;2015;48.670;9.060;2024-01-30T11:03:09;11.70;99.90
4002;DHT22;2015;48.670;9.060;2024-01-30T11:05:41;11.70;99.90
4002;DHT22;2015;48.670;9.060;2024-01-30T11:08:13;11.70;99.90
4002;DHT22;2015;48.670;9.060;2024-01-30T11:10:48;11.70;99.90
4002;DHT22;2015;48.670;9.060;2024-01-30T11:13:20;11.60;99.90
4002;DHT22;2015;48.670;9.060;2024-01-30T11:15:52;11.60;99.90
4002;DHT22;2015;48.670;9.060;2024-01-30T11:18:29;11.70;99.90
4002;DHT22;2015;48.670;9.060;2024-01-30T11:21:01;11.80;99.90
4002;DHT22;2015;48.670;9.060;2024-01-30T11:23:34;11.80;99.90
4002;DHT22;2015;48.670;9.060;2024-01-30T11:26:10;11.80;99.90
4002;DHT22;2015;48.670;9.060;2024-01-30T11:28:42;11.90;99.90
4002;DHT22;2015;48.670;9.060;2024-01-30T11:31:18;11.80;99.90
4002;DHT22;2015;48.670;9.060;2024-01-30T11:33:52;11.70;99.90
4002;DHT22;2015;48.670;9.060;2024-01-30T11:36:26;11.70;99.90
4002;DHT22;2015;48.670;9.060;2024-01-30T11:39:00;11.80;99.90
4002;DHT22;2015;48.670;9.060;2024-01-30T11:41:34;11.80;99.90
4002;DHT22;2015;48.670;9.060;2024-01-30T11:44:08;11.80;99.90
4002;DHT22;2015;48.670;9.060;2024-01-30T11:46:41;11.80;99.90
4002;DHT22;2015;48.670;9.060;2024-01-30T11:49:13;11.70;99.90
4002;DHT22;2015;48.670;9.060;2024-01-30T11:51:48;11.70;99.90
4002;DHT22;2015;48.670;9.060;2024-01-30T11:54:20;11.70;99.90
4002;DHT22;2015;48.670;9.060;2024-01-30T11:56:52;11.70;99.90
4002;DHT22;2015;48.670;9.060;2024-01-30T11:59:24;11.70;99.90
4002;DHT22;2015;48.670;9.060;2024-01-30T12:01:56;11.60;99.90
4002;DHT22;2015;48.670;9.060;2024-01-30T12:04:29;11.70;99.90
4002;DHT22;2015;48.670;9.060;2024-01-30T12:07:01;11.70;99.90
4002;DHT22;2015;48.670;9.060;2024-01-30T12:09:35;11.80;99.90
4002;DHT22;2015;48.670;9.060;2024-01-30T12:12:07;11.80;99.90
4002;DHT22;2015;48.670;9.060;2024-01-30T12:14:43;11.90;99.90
4002;DHT22;2015;48.670;9.060;2024-01-30T12:17:31;12.00;99.90
4002;DHT22;2015;48.670;9.060;2024-01-30T12:20:09;11.90;99.90
4002;DHT22;2015;48.670;9.060;2024-01-30T12:22:43;11.90;99.90
4002;DHT22;2015;48.670;9.060;2024-01-30T12:25:17;11.90;99.90
4002;DHT22;2015;48.670;9.060;2024-01-30T12:27:50;11.90;99.90
4002;DHT22;2015;48.670;9.060;2024-01-30T12:30:23;11.90;99.90
4002;DHT22;2015;48.670;9.060;2024-01-30T12:32:55;12.10;99.90
4002;DHT22;2015;48.670;9.060;2024-01-30T12:35:26;12.00;99.90
4002;DHT22;2015;48.670;9.060;2024-01-30T12:38:03;12.00;99.90
4002;DHT22;2015;48.670;9.060;2024-01-30T12:40:35;12.20;99.90
4002;DHT22;2015;48.670;9.060;2024-01-30T12:43:11;12.20;99.90
4002;DHT22;2015;48.670;9.060;2024-01-30T12:45:44;12.20;99.90
4002;DHT22;2015;48.670;9.060;2024-01-30T12:48:16;12.20;99.90
4002;DHT22;2015;48.670;9.060;2024-01-30T12:50:48;12.20;99.90
4002;DHT22;2015;48.670;9.060;2024-01-30T12:53:20;12.20;99.90
4002;DHT22;2015;48.670;9.060;2024-01-30T12:55:52;12.10;99.90
4002;DHT22;2015;48.670;9.060;2024-01-30T12:58:25;12.20;99.90
4002;DHT22;2015;48.670;9.060;2024-01-30T13:00:57;12.20;99.90
4002;DHT22;2015;48.670;9.060;2024-01-30T13:03:30;12.20;99.90
4002;DHT22;2015;48.670;9.060;2024-01-30T13:06:01;12.30;99.90
4002;DHT22;2015;48.670;9.060;2024-01-30T13:08:33;12.20;99.90
4002;DHT22;2015;48.670;9.060;2024-01-30T13:11:05;12.10;99.90
4002;DHT22;2015;48.670;9.060;2024-01-30T13:13:40;12.10;99.90
4002;DHT22;2015;48.670;9.060;2024-01-30T13:16:11;12.10;99.90
4002;DHT22;2015;48.670;9.060;2024-01-30T13:18:44;12.20;99.90
4002;DHT22;2015;48.670;9.060;2024-01-30T13:21:16;12.20;99.90
4002;DHT22;2015;48.670;9.060;2024-01-30T13:23:47;12.20;99.90
4002;DHT22;2015;48.670;9.060;2024-01-30T13:26:22;12.20;99.90
4002;DHT22;2015;48.670;9.060;2024-01-30T13:28:54;12.20;99.90
4002;DHT22;2015;48.670;9.060;2024-01-30T13:31:26;12.10;99.90
4002;DHT22;2015;48.670;9.060;2024-01-30T13:33:59;12.10;99.90
4002;DHT22;2015;48.670;9.060;2024-01-30T13:36:31;12.10;99.90
4002;DHT22;2015;48.670;9.060;2024-01-30T13:39:02;12.20;99.90
4002;DHT22;2015;48.670;9.060;2024-01-30T13:41:36;12.20;99.90
4002;DHT22;2015;48.670;9.060;2024-01-30T13:44:09;12.20;99.90
4002;DHT22;2015;48.670;9.060;2024-01-30T13:46:40;12.20;99.90
4002;DHT22;2015;48.670;9.060;2024-01-30T13:49:12;12.30;99.90
4002;DHT22;2015;48.670;9.060;2024-01-30T13:51:44;12.30;99.90
4002;DHT22;2015;48.670;9.060;2024-01-30T13:54:16;12.30;99.90
4002;DHT22;2015;48.670;9.060;2024-01-30T13:56:48;12.30;99.90
4002;DHT22;2015;48.670;9.060;2024-01-30T13:59:19;12.20;99.90
4002;DHT22;2015;48.670;9.060;2024-01-30T14:01:55;12.20;99.90
4002;DHT22;2015;48.670;9.060;2024-01-30T14:04:27;12.20;99.90
4002;DHT22;2015;48.670;9.060;2024-01-30T14:06:59;12.20;99.90
4002;DHT22;2015;48.670;9.060;2024-01-30T14:09:36;12.20;99.90
4002;DHT22;2015;48.670;9.060;2024-01-30T14:12:07;12.20;99.90
4002;DHT22;2015;48.670;9.060;2024-01-30T14:14:40;12.20;99.90
4002;DHT22;2015;48.670;9.060;2024-01-30T14:17:12;12.20;99.90
4002;DHT22;2015;48.670;9.060;2024-01-30T14:19:43;12.20;99.90
4002;DHT22;2015;48.670;9.060;2024-01-30T14:22:15;12.20;99.90
4002;DHT22;2015;48.670;9.060;2024-01-30T14:24:47;12.10;99.90
4002;DHT22;2015;48.670;9.060;2024-01-30T14:27:19;12.10;99.90
4002;DHT22;2015;48.670;9.060;2024-01-30T14:29:51;12.00;99.90
4002;DHT22;2015;48.670;9.060;2024-01-30T14:32:23;12.00;99.90
4002;DHT22;2015;48.670;9.060;2024-01-30T14:34:55;12.00;99.90
4002;DHT22;2015;48.670;9.060;2024-01-30T14:37:27;11.90;99.90
4002;DHT22;2015;48.670;9.060;2024-01-30T14:40:02;11.80;99.90
4002;DHT22;2015;48.670;9.060;2024-01-30T14:42:34;11.80;99.90
4002;DHT22;2015;48.670;9.060;2024-01-30T14:45:07;11.80;99.90
4002;DHT22;2015;48.670;9.060;2024-01-30T14:47:39;11.70;99.90
4002;DHT22;2015;48.670;9.060;2024-01-30T14:50:12;11.60;99.90
4002;DHT22;2015;48.670;9.060;2024-01-30T14:52:44;11.60;99.90
4002;DHT22;2015;48.670;9.060;2024-01-30T14:55:16;11.60;99.90
4002;DHT22;2015;48.670;9.060;2024-01-30T14:57:48;11.50;99.90
4002;DHT22;2015;48.670;9.060;2024-01-30T15:00:20;11.40;99.90
4002;DHT22;2015;48.670;9.060;2024-01-30T15:02:52;11.40;99.90
4002;DHT22;2015;48.670;9.060;2024-01-30T15:05:24;11.20;99.90
4002;DHT22;2015;48.670;9.060;2024-01-30T15:07:56;11.20;99.90
4002;DHT22;2015;48.670;9.060;2024-01-30T15:10:27;11.10;99.90
4002;DHT22;2015;48.670;9.060;2024-01-30T15:12:59;11.00;99.90
4002;DHT22;2015;48.670;9.060;2024-01-30T15:15:31;10.90;99.90
4002;DHT22;2015;48.670;9.060;2024-01-30T15:18:03;10.80;99.90
4002;DHT22;2015;48.670;9.060;2024-01-30T15:20:35;10.70;99.90
4002;DHT22;2015;48.670;9.060;2024-01-30T15:23:07;10.50;99.90
4002;DHT22;2015;48.670;9.060;2024-01-30T15:25:39;10.40;99.90
4002;DHT22;2015;48.670;9.060;2024-01-30T15:28:11;10.30;99.90
4002;DHT22;2015;48.670;9.060;2024-01-30T15:30:43;10.10;99.90
4002;DHT22;2015;48.670;9.060;2024-01-30T15:33:14;10.00;99.90
4002;DHT22;2015;48.670;9.060;2024-01-30T15:35:46;9.90;99.90
4002;DHT22;2015;48.670;9.060;2024-01-30T15:38:19;9.80;99.90
4002;DHT22;2015;48.670;9.060;2024-01-30T15:40:52;9.70;99.90
4002;DHT22;2015;48.670;9.060;2024-01-30T15:43:24;9.50;99.90
4002;DHT22;2015;48.670;9.060;2024-01-30T15:45:56;9.40;99.90
4002;DHT22;2015;48.670;9.060;2024-01-30T15:48:28;9.40;99.90
4002;DHT22;2015;48.670;9.060;2024-01-30T15:51:00;9.20;99.90
4002;DHT22;2015;48.670;9.060;2024-01-30T15:53:32;9.10;99.90
4002;DHT22;2015;48.670;9.060;2024-01-30T15:56:04;9.00;99.90
4002;DHT22;2015;48.670;9.060;2024-01-30T15:58:36;8.90;99.90
4002;DHT22;2015;48.670;9.060;2024-01-30T16:01:08;8.90;99.90
4002;DHT22;2015;48.670;9.060;2024-01-30T16:03:39;8.90;99.90
4002;DHT22;2015;48.670;9.060;2024-01-30T16:06:12;8.80;99.90
4002;DHT22;2015;48.670;9.060;2024-01-30T16:08:44;8.70;99.90
4002;DHT22;2015;48.670;9.060;2024-01-30T16:11:16;8.70;99.90
4002;DHT22;2015;48.670;9.060;2024-01-30T16:13:49;8.70;99.90
4002;DHT22;2015;48.670;9.060;2024-01-30T16:16:23;8.60;99.90
4002;DHT22;2015;48.670;9.060;2024-01-30T16:18:55;8.60;99.90
4002;DHT22;2015;48.670;9.060;2024-01-30T16:21:27;8.50;99.90
4002;DHT22;2015;48.670;9.060;2024-01-30T16:23:59;8.40;99.90
4002;DHT22;2015;48.670;9.060;2024-01-30T16:26:31;8.40;99.90
4002;DHT22;2015;48.670;9.060;2024-01-30T16:29:03;8.30;99.90
4002;DHT22;2015;48.670;9.060;2024-01-30T16:31:35;8.20;99.90
4002;DHT22;2015;48.670;9.060;2024-01-30T16:34:06;8.20;99.90
4002;DHT22;2015;48.670;9.060;2024-01-30T16:36:39;8.10;99.90
4002;DHT22;2015;48.670;9.060;2024-01-30T16:39:11;8.10;99.90
4002;DHT22;2015;48.670;9.060;2024-01-30T16:41:43;8.00;99.90
4002;DHT22;2015;48.670;9.060;2024-01-30T16:44:15;8.00;99.90